createdAt,value
2023-05-21T00:01:25.946Z,0.98
2023-05-21T00:03:52.716Z,0.90
2023-05-21T00:06:21.143Z,1.20
2023-05-21T00:08:47.865Z,1.00
2023-05-21T00:11:14.413Z,1.52
2023-05-21T00:13:41.060Z,1.27
2023-05-21T00:16:07.928Z,1.10
2023-05-21T00:18:34.545Z,1.70
2023-05-21T00:21:01.841Z,1.42
2023-05-21T00:23:29.047Z,1.30
2023-05-21T00:25:56.344Z,1.38
2023-05-21T00:28:22.893Z,1.20
2023-05-21T00:30:49.586Z,1.10
2023-05-21T00:33:16.238Z,1.40
2023-05-21T00:35:43.009Z,1.80
2023-05-21T00:38:09.615Z,1.40
2023-05-21T00:40:36.423Z,1.55
2023-05-21T00:43:03.436Z,1.63
2023-05-21T00:45:30.122Z,1.23
2023-05-21T00:47:56.921Z,1.75
2023-05-21T00:50:24.249Z,1.58
2023-05-21T00:52:51.739Z,1.65
2023-05-21T00:55:18.411Z,1.80
2023-05-21T00:57:46.032Z,2.00
2023-05-21T01:00:14.623Z,1.73
2023-05-21T01:02:42.178Z,1.30
2023-05-21T01:05:09.821Z,1.70
2023-05-21T01:07:38.939Z,1.20
2023-05-21T01:10:07.713Z,1.95
2023-05-21T01:12:35.563Z,1.67
2023-05-21T01:15:04.163Z,1.60
2023-05-21T01:17:31.862Z,1.60
2023-05-21T01:19:59.467Z,1.90
2023-05-21T01:22:28.667Z,1.75
2023-05-21T01:24:55.599Z,2.40
2023-05-21T01:27:22.807Z,1.70
2023-05-21T01:29:49.582Z,1.88
2023-05-21T01:32:26.244Z,2.35
2023-05-21T01:35:10.129Z,2.00
2023-05-21T01:37:49.053Z,1.95
2023-05-21T01:40:30.860Z,2.20
2023-05-21T01:42:58.431Z,1.90
2023-05-21T01:45:27.506Z,1.75
2023-05-21T01:47:55.740Z,1.95
2023-05-21T01:50:24.978Z,1.75
2023-05-21T01:52:53.685Z,1.85
2023-05-21T01:55:24.853Z,1.80
2023-05-21T01:57:53.517Z,1.90
2023-05-21T02:00:21.655Z,1.90
2023-05-21T02:02:49.057Z,2.58
2023-05-21T02:05:16.379Z,1.73
2023-05-21T02:07:43.960Z,1.85
2023-05-21T02:10:11.092Z,2.08
2023-05-21T02:12:38.458Z,1.88
2023-05-21T02:15:06.083Z,1.63
2023-05-21T02:17:34.106Z,2.38
2023-05-21T02:20:13.861Z,1.90
2023-05-21T02:22:42.566Z,2.13
2023-05-21T02:25:10.127Z,1.73
2023-05-21T02:27:37.796Z,2.20
2023-05-21T02:30:13.145Z,2.20
2023-05-21T02:32:43.013Z,2.38
2023-05-21T02:35:12.057Z,1.67
2023-05-21T02:37:44.086Z,2.17
2023-05-21T02:40:11.969Z,1.63
2023-05-21T02:42:40.511Z,1.70
2023-05-21T02:45:11.517Z,1.77
2023-05-21T02:47:38.801Z,2.00
2023-05-21T02:50:07.386Z,1.60
2023-05-21T02:52:34.035Z,1.83
2023-05-21T02:55:00.617Z,1.55
2023-05-21T02:57:27.209Z,1.63
2023-05-21T02:59:53.780Z,2.03
2023-05-21T03:02:20.765Z,1.60
2023-05-21T03:04:47.908Z,1.75
2023-05-21T03:07:15.798Z,1.88
2023-05-21T03:09:42.512Z,2.08
2023-05-21T03:12:10.047Z,1.40
2023-05-21T03:14:37.136Z,1.60
2023-05-21T03:17:06.219Z,1.70
2023-05-21T03:19:36.782Z,1.80
2023-05-21T03:22:04.596Z,1.77
2023-05-21T03:24:31.824Z,1.80
2023-05-21T03:26:59.307Z,1.95
2023-05-21T03:29:25.876Z,1.77
2023-05-21T03:31:54.130Z,2.28
2023-05-21T03:34:21.271Z,1.98
2023-05-21T03:36:48.049Z,1.83
2023-05-21T03:39:14.692Z,1.60
2023-05-21T03:41:41.317Z,1.75
2023-05-21T03:44:08.277Z,1.80
2023-05-21T03:46:35.201Z,1.70
2023-05-21T03:49:02.350Z,1.80
2023-05-21T03:51:30.430Z,1.80
2023-05-21T03:54:00.272Z,1.83
2023-05-21T03:56:26.948Z,2.10
2023-05-21T03:58:53.742Z,2.03
2023-05-21T04:01:20.402Z,2.03
2023-05-21T04:03:47.483Z,2.15
2023-05-21T04:06:14.245Z,1.80
2023-05-21T04:08:40.860Z,2.20
2023-05-21T04:11:07.470Z,2.20
2023-05-21T04:13:34.071Z,2.10
2023-05-21T04:16:01.168Z,2.08
2023-05-21T04:18:27.916Z,2.40
2023-05-21T04:20:54.527Z,2.30
2023-05-21T04:23:23.718Z,2.38
2023-05-21T04:25:51.038Z,2.50
2023-05-21T04:28:20.335Z,2.30
2023-05-21T04:30:48.071Z,2.50
2023-05-21T04:33:18.388Z,2.70
2023-05-21T04:35:50.211Z,2.70
2023-05-21T04:38:20.863Z,2.25
2023-05-21T04:40:52.972Z,2.15
2023-05-21T04:43:25.994Z,2.50
2023-05-21T04:45:54.915Z,2.63
2023-05-21T04:48:26.857Z,2.90
2023-05-21T04:50:54.081Z,2.38
2023-05-21T04:53:20.837Z,2.45
2023-05-21T04:55:47.493Z,2.47
2023-05-21T04:58:14.700Z,2.95
2023-05-21T05:00:42.292Z,2.83
2023-05-21T05:03:09.112Z,3.20
2023-05-21T05:05:36.208Z,2.88
2023-05-21T05:08:04.052Z,1.85
2023-05-21T05:10:30.725Z,4.53
2023-05-21T05:12:57.272Z,2.80
2023-05-21T05:15:24.108Z,2.70
2023-05-21T05:17:50.719Z,3.00
2023-05-21T05:20:17.427Z,3.10
2023-05-21T05:22:43.951Z,2.85
2023-05-21T05:25:10.718Z,2.78
2023-05-21T05:27:38.602Z,2.95
2023-05-21T05:30:05.931Z,3.00
2023-05-21T05:32:32.626Z,3.42
2023-05-21T05:35:01.005Z,2.53
2023-05-21T05:37:28.810Z,3.25
2023-05-21T05:39:55.370Z,2.55
2023-05-21T05:42:22.000Z,2.85
2023-05-21T05:44:48.557Z,2.80
2023-05-21T05:47:15.181Z,2.75
2023-05-21T05:49:41.833Z,3.80
2023-05-21T05:52:08.524Z,3.30
2023-05-21T05:54:35.114Z,2.30
2023-05-21T05:57:01.753Z,3.13
2023-05-21T05:59:28.315Z,2.97
2023-05-21T06:01:54.902Z,3.05
2023-05-21T06:04:21.467Z,3.00
2023-05-21T06:06:48.237Z,3.10
2023-05-21T06:09:14.906Z,2.67
2023-05-21T06:11:41.530Z,2.63
2023-05-21T06:14:08.063Z,3.08
2023-05-21T06:16:35.010Z,2.40
2023-05-21T06:19:01.715Z,3.78
2023-05-21T06:21:28.521Z,3.47
2023-05-21T06:23:55.081Z,3.35
2023-05-21T06:26:22.001Z,4.38
2023-05-21T06:28:49.015Z,3.20
2023-05-21T06:31:16.241Z,2.58
2023-05-21T06:33:42.928Z,3.65
2023-05-21T06:36:09.635Z,2.80
2023-05-21T06:38:36.312Z,2.90
2023-05-21T06:41:04.165Z,3.80
2023-05-21T06:43:30.796Z,3.63
2023-05-21T06:45:57.460Z,3.85
2023-05-21T06:48:24.045Z,3.30
2023-05-21T06:50:50.704Z,3.67
2023-05-21T06:53:17.282Z,3.33
2023-05-21T06:55:44.982Z,3.33
2023-05-21T06:58:12.142Z,3.55
2023-05-21T07:00:38.712Z,3.55
2023-05-21T07:03:05.864Z,3.63
2023-05-21T07:05:32.519Z,3.60
2023-05-21T07:07:59.069Z,3.90
2023-05-21T07:10:25.831Z,3.22
2023-05-21T07:12:52.409Z,4.15
2023-05-21T07:15:19.061Z,2.97
2023-05-21T07:17:46.029Z,2.88
2023-05-21T07:20:13.376Z,2.97
2023-05-21T07:22:40.110Z,3.20
2023-05-21T07:25:07.195Z,3.60
2023-05-21T07:27:33.780Z,3.60
2023-05-21T07:30:00.588Z,3.58
2023-05-21T07:32:29.219Z,3.55
2023-05-21T07:34:56.706Z,4.15
2023-05-21T07:37:23.413Z,3.22
2023-05-21T07:39:49.994Z,3.42
2023-05-21T07:42:16.578Z,4.43
2023-05-21T07:44:43.114Z,3.47
2023-05-21T07:47:09.822Z,3.75
2023-05-21T07:49:36.401Z,3.95
2023-05-21T07:52:03.001Z,3.97
2023-05-21T07:54:29.560Z,3.95
2023-05-21T07:56:56.410Z,3.20
2023-05-21T07:59:22.971Z,3.50
2023-05-21T08:01:49.660Z,3.83
2023-05-21T08:04:16.668Z,3.17
2023-05-21T08:06:43.333Z,3.75
2023-05-21T08:09:10.047Z,3.28
2023-05-21T08:11:36.595Z,3.35
2023-05-21T08:14:03.245Z,3.25
2023-05-21T08:16:29.891Z,3.80
2023-05-21T08:18:56.492Z,3.15
2023-05-21T08:21:23.161Z,3.42
2023-05-21T08:23:52.583Z,4.20
2023-05-21T08:26:19.151Z,3.35
2023-05-21T08:28:45.737Z,3.70
2023-05-21T08:31:12.493Z,3.85
2023-05-21T08:33:39.098Z,4.20
2023-05-21T08:36:07.120Z,3.75
2023-05-21T08:38:35.059Z,3.13
2023-05-21T08:41:01.737Z,3.45
2023-05-21T08:43:28.717Z,3.25
2023-05-21T08:45:57.447Z,3.83
2023-05-21T08:48:24.687Z,3.65
2023-05-21T08:50:55.034Z,3.40
2023-05-21T08:53:28.791Z,3.65
2023-05-21T08:55:57.496Z,2.50
2023-05-21T08:58:24.646Z,3.45
2023-05-21T09:00:51.489Z,2.85
2023-05-21T09:03:18.374Z,3.20
2023-05-21T09:05:48.274Z,3.50
2023-05-21T09:08:45.982Z,3.42
2023-05-21T09:11:12.571Z,3.17
2023-05-21T09:13:40.685Z,3.38
2023-05-21T09:16:08.148Z,3.38
2023-05-21T09:18:34.730Z,4.03
2023-05-21T09:21:26.164Z,3.95
2023-05-21T09:23:57.758Z,3.15
2023-05-21T09:26:24.986Z,3.10
2023-05-21T09:28:56.501Z,2.90
2023-05-21T09:31:27.220Z,3.15
2023-05-21T09:33:55.657Z,3.38
2023-05-21T09:36:22.296Z,3.55
2023-05-21T09:38:52.237Z,3.83
2023-05-21T09:41:21.782Z,3.30
2023-05-21T09:43:49.440Z,4.35
2023-05-21T09:46:16.242Z,3.08
2023-05-21T09:48:43.603Z,3.25
2023-05-21T09:51:14.248Z,2.90
2023-05-21T09:53:52.343Z,4.07
2023-05-21T09:56:24.727Z,4.38
2023-05-21T09:58:58.401Z,3.70
2023-05-21T10:01:25.155Z,3.83
2023-05-21T10:03:57.047Z,3.17
2023-05-21T10:06:28.410Z,3.42
2023-05-21T10:08:56.953Z,3.63
2023-05-21T10:11:27.360Z,3.63
2023-05-21T10:14:16.369Z,3.10
2023-05-21T10:16:44.470Z,3.28
2023-05-21T10:19:12.245Z,3.55
2023-05-21T10:21:40.027Z,3.70
2023-05-21T10:24:09.150Z,2.75
2023-05-21T10:26:36.803Z,3.25
2023-05-21T10:29:03.556Z,2.92
2023-05-21T10:31:30.145Z,4.00
2023-05-21T10:33:56.832Z,3.08
2023-05-21T10:36:31.050Z,2.67
2023-05-21T10:39:00.244Z,3.47
2023-05-21T10:41:32.160Z,2.55
2023-05-21T10:44:05.846Z,3.20
2023-05-21T10:47:23.196Z,3.47
2023-05-21T10:49:58.568Z,3.10
2023-05-21T10:53:09.931Z,3.17
2023-05-21T10:56:06.699Z,3.10
2023-05-21T10:58:48.317Z,3.72
2023-05-21T11:01:16.319Z,3.92
2023-05-21T11:03:43.187Z,3.20
2023-05-21T11:06:11.666Z,3.13
2023-05-21T11:08:39.023Z,3.42
2023-05-21T11:11:05.955Z,3.60
2023-05-21T11:13:49.805Z,2.78
2023-05-21T11:16:17.594Z,3.10
2023-05-21T11:18:47.270Z,3.63
2023-05-21T11:21:15.625Z,3.30
2023-05-21T11:23:51.756Z,3.15
2023-05-21T11:26:18.332Z,3.58
2023-05-21T11:28:45.068Z,3.30
2023-05-21T11:31:27.995Z,3.25
2023-05-21T11:34:21.845Z,3.58
2023-05-21T11:36:49.708Z,2.95
2023-05-21T11:39:23.988Z,3.63
2023-05-21T11:42:04.314Z,3.30
2023-05-21T11:44:59.149Z,3.67
2023-05-21T11:47:27.165Z,3.03
2023-05-21T11:49:54.553Z,3.30
2023-05-21T11:52:21.520Z,3.60
2023-05-21T11:54:51.886Z,3.42
2023-05-21T11:57:19.503Z,3.70
2023-05-21T11:59:46.790Z,3.33
2023-05-21T12:02:17.636Z,3.95
2023-05-21T12:04:45.481Z,3.58
2023-05-21T12:07:15.305Z,3.35
2023-05-21T12:09:43.420Z,2.92
2023-05-21T12:12:11.409Z,3.75
2023-05-21T12:14:38.189Z,3.63
2023-05-21T12:17:06.966Z,3.45
2023-05-21T12:19:34.668Z,3.50
2023-05-21T12:22:04.924Z,3.40
2023-05-21T12:24:32.645Z,3.70
2023-05-21T12:27:01.420Z,4.32
2023-05-21T12:29:32.244Z,4.18
2023-05-21T12:32:02.856Z,4.60
2023-05-21T12:34:39.190Z,3.53
2023-05-21T12:37:07.845Z,3.72
2023-05-21T12:39:44.930Z,2.83
2023-05-21T12:42:12.424Z,3.55
2023-05-21T12:44:47.306Z,4.03
2023-05-21T12:47:14.338Z,3.90
2023-05-21T12:49:42.646Z,3.38
2023-05-21T12:52:13.244Z,3.50
2023-05-21T12:54:41.978Z,2.85
2023-05-21T12:57:15.789Z,3.65
2023-05-21T12:59:49.562Z,2.67
2023-05-21T13:02:20.754Z,3.40
2023-05-21T13:04:48.421Z,3.53
2023-05-21T13:07:16.622Z,4.68
2023-05-21T13:09:43.300Z,2.80
2023-05-21T13:12:09.928Z,3.70
2023-05-21T13:14:36.562Z,3.05
2023-05-21T13:17:03.283Z,3.05
2023-05-21T13:19:30.028Z,3.90
2023-05-21T13:21:56.691Z,3.40
2023-05-21T13:24:23.503Z,2.50
2023-05-21T13:26:50.154Z,2.63
2023-05-21T13:29:17.213Z,4.07
2023-05-21T13:31:44.341Z,2.67
2023-05-21T13:34:12.685Z,2.25
2023-05-21T13:36:40.535Z,3.03
2023-05-21T13:39:07.705Z,2.30
2023-05-21T13:41:34.288Z,3.22
2023-05-21T13:44:00.976Z,2.63
2023-05-21T13:46:27.568Z,2.28
2023-05-21T13:48:54.314Z,2.78
2023-05-21T13:51:37.557Z,3.10
2023-05-21T13:54:05.681Z,6.90
2023-05-21T13:56:33.626Z,3.10
2023-05-21T13:59:01.344Z,3.75
2023-05-21T14:01:28.024Z,4.65
2023-05-21T14:03:54.845Z,2.75
2023-05-21T14:06:21.439Z,2.75
2023-05-21T14:08:48.202Z,2.88
2023-05-21T14:11:14.765Z,9.73
2023-05-21T14:13:41.511Z,3.90
2023-05-21T14:16:08.234Z,2.95
2023-05-21T14:18:34.801Z,6.22
2023-05-21T14:21:02.144Z,4.88
2023-05-21T14:23:28.952Z,3.38
2023-05-21T14:25:55.596Z,2.78
2023-05-21T14:28:22.153Z,3.08
2023-05-21T14:30:48.815Z,5.57
2023-05-21T14:33:16.290Z,3.72
2023-05-21T14:35:44.308Z,3.60
2023-05-21T14:38:11.136Z,3.40
2023-05-21T14:40:37.693Z,3.38
2023-05-21T14:43:05.707Z,4.45
2023-05-21T14:45:35.382Z,4.55
2023-05-21T14:48:08.237Z,5.50
2023-05-21T14:50:35.890Z,6.78
2023-05-21T14:53:09.896Z,7.75
2023-05-21T14:55:37.772Z,5.70
2023-05-21T14:58:05.646Z,6.13
2023-05-21T15:00:33.686Z,4.45
2023-05-21T15:03:00.962Z,3.08
2023-05-21T15:05:29.332Z,2.83
2023-05-21T15:07:59.328Z,4.07
2023-05-21T15:10:27.236Z,3.60
2023-05-21T15:12:54.329Z,3.20
2023-05-21T15:15:21.181Z,3.65
2023-05-21T15:17:48.915Z,3.58
2023-05-21T15:20:16.075Z,4.07
2023-05-21T15:22:42.866Z,3.63
2023-05-21T15:25:10.680Z,4.13
2023-05-21T15:27:37.303Z,3.13
2023-05-21T15:30:04.770Z,4.40
2023-05-21T15:32:31.610Z,3.08
2023-05-21T15:34:58.509Z,3.70
2023-05-21T15:37:25.346Z,3.13
2023-05-21T15:39:53.445Z,3.30
2023-05-21T15:42:20.046Z,3.75
2023-05-21T15:44:47.018Z,4.07
2023-05-21T15:47:13.583Z,4.35
2023-05-21T15:49:40.181Z,3.95
2023-05-21T15:52:07.078Z,4.07
2023-05-21T15:54:33.650Z,4.00
2023-05-21T15:57:00.807Z,4.88
2023-05-21T15:59:27.689Z,7.38
2023-05-21T16:01:56.108Z,11.27
2023-05-21T16:04:22.810Z,5.28
2023-05-21T16:06:49.404Z,9.60
2023-05-21T16:09:16.004Z,5.38
2023-05-21T16:11:44.795Z,5.05
2023-05-21T16:14:12.298Z,4.40
2023-05-21T16:16:39.383Z,4.38
2023-05-21T16:19:06.233Z,5.28
2023-05-21T16:21:33.044Z,4.10
2023-05-21T16:24:00.150Z,6.50
2023-05-21T16:26:26.805Z,6.05
2023-05-21T16:28:53.624Z,5.25
2023-05-21T16:31:20.521Z,5.43
2023-05-21T16:33:47.224Z,5.80
2023-05-21T16:36:15.062Z,5.45
2023-05-21T16:38:44.339Z,5.57
2023-05-21T16:41:11.185Z,5.72
2023-05-21T16:43:37.725Z,6.30
2023-05-21T16:46:04.374Z,5.88
2023-05-21T16:48:32.292Z,5.15
2023-05-21T16:50:59.105Z,5.93
2023-05-21T16:53:25.666Z,6.43
2023-05-21T16:55:52.238Z,6.53
2023-05-21T16:58:19.097Z,6.43
2023-05-21T17:00:46.120Z,6.20
2023-05-21T17:03:13.031Z,6.05
2023-05-21T17:05:39.805Z,5.97
2023-05-21T17:08:06.434Z,6.07
2023-05-21T17:10:33.060Z,7.00
2023-05-21T17:13:01.889Z,5.90
2023-05-21T17:15:33.402Z,6.25
2023-05-21T17:18:00.298Z,6.60
2023-05-21T17:20:26.959Z,7.28
2023-05-21T17:22:53.622Z,6.05
2023-05-21T17:25:20.392Z,6.95
2023-05-21T17:27:47.039Z,5.95
2023-05-21T17:30:13.691Z,7.93
2023-05-21T17:32:40.484Z,6.30
2023-05-21T17:35:09.185Z,7.13
2023-05-21T17:37:35.899Z,6.95
2023-05-21T17:40:02.696Z,6.97
2023-05-21T17:42:29.259Z,6.93
2023-05-21T17:44:55.917Z,6.38
2023-05-21T17:47:22.729Z,6.05
2023-05-21T17:49:49.415Z,7.25
2023-05-21T17:52:15.957Z,6.47
2023-05-21T17:54:42.552Z,6.72
2023-05-21T17:57:09.127Z,6.65
2023-05-21T17:59:35.825Z,6.70
2023-05-21T18:02:02.521Z,6.35
2023-05-21T18:04:29.184Z,7.15
2023-05-21T18:06:55.876Z,7.25
2023-05-21T18:09:22.537Z,8.00
2023-05-21T18:11:49.395Z,7.35
2023-05-21T18:14:15.973Z,7.07
2023-05-21T18:16:42.622Z,7.40
2023-05-21T18:19:09.388Z,8.25
2023-05-21T18:21:37.292Z,8.10
2023-05-21T18:24:04.654Z,7.47
2023-05-21T18:26:31.368Z,7.95
2023-05-21T18:28:58.629Z,7.80
2023-05-21T18:31:25.728Z,8.55
2023-05-21T18:33:52.634Z,7.72
2023-05-21T18:36:19.330Z,7.57
2023-05-21T18:38:46.085Z,7.45
2023-05-21T18:41:12.663Z,7.93
2023-05-21T18:43:39.369Z,8.32
2023-05-21T18:46:05.970Z,7.30
2023-05-21T18:48:33.045Z,6.97
2023-05-21T18:50:59.647Z,6.25
2023-05-21T18:53:26.234Z,6.15
2023-05-21T18:55:52.786Z,6.65
2023-05-21T18:58:19.394Z,6.38
2023-05-21T19:00:46.025Z,6.82
2023-05-21T19:03:12.653Z,7.05
2023-05-21T19:05:39.296Z,6.72
2023-05-21T19:08:06.150Z,6.40
2023-05-21T19:10:32.795Z,6.82
2023-05-21T19:12:59.448Z,6.25
2023-05-21T19:15:26.019Z,7.68
2023-05-21T19:17:52.721Z,7.10
2023-05-21T19:20:26.677Z,6.45
2023-05-21T19:22:54.466Z,7.10
2023-05-21T19:25:21.304Z,6.85
2023-05-21T19:27:47.960Z,6.82
2023-05-21T19:30:14.584Z,7.00
2023-05-21T19:32:41.143Z,6.88
2023-05-21T19:35:08.239Z,7.88
2023-05-21T19:37:35.029Z,8.32
2023-05-21T19:40:01.606Z,6.97
2023-05-21T19:42:28.563Z,7.72
2023-05-21T19:44:55.113Z,7.68
2023-05-21T19:47:21.761Z,7.45
2023-05-21T19:49:48.322Z,7.35
2023-05-21T19:52:14.970Z,8.30
2023-05-21T19:54:41.540Z,7.95
2023-05-21T19:57:09.622Z,7.10
2023-05-21T19:59:38.211Z,7.63
2023-05-21T20:02:04.949Z,7.07
2023-05-21T20:04:32.616Z,7.50
2023-05-21T20:06:59.187Z,6.88
2023-05-21T20:09:25.980Z,9.30
2023-05-21T20:11:52.572Z,7.35
2023-05-21T20:14:19.155Z,8.02
2023-05-21T20:16:48.492Z,7.43
2023-05-21T20:19:15.323Z,8.65
2023-05-21T20:21:42.180Z,7.20
2023-05-21T20:24:08.875Z,7.60
2023-05-21T20:26:36.505Z,7.55
2023-05-21T20:29:03.130Z,8.25
2023-05-21T20:31:29.973Z,8.10
2023-05-21T20:33:56.577Z,7.57
2023-05-21T20:36:23.803Z,8.60
2023-05-21T20:38:50.438Z,7.88
2023-05-21T20:41:17.175Z,8.52
2023-05-21T20:43:45.333Z,9.05
2023-05-21T20:46:11.960Z,8.65
2023-05-21T20:48:38.553Z,9.10
2023-05-21T20:51:05.255Z,9.27
2023-05-21T20:53:32.059Z,9.38
2023-05-21T20:56:01.549Z,8.82
2023-05-21T20:58:28.289Z,8.18
2023-05-21T21:00:55.307Z,9.43
2023-05-21T21:03:22.285Z,8.85
2023-05-21T21:05:49.081Z,8.98
2023-05-21T21:08:16.200Z,9.25
2023-05-21T21:10:46.765Z,9.13
2023-05-21T21:13:14.272Z,8.30
2023-05-21T21:15:41.001Z,9.27
2023-05-21T21:18:07.756Z,9.23
2023-05-21T21:20:34.486Z,8.15
2023-05-21T21:23:01.077Z,9.88
2023-05-21T21:25:27.653Z,9.13
2023-05-21T21:27:54.271Z,9.70
2023-05-21T21:30:20.868Z,9.70
2023-05-21T21:32:49.374Z,9.38
2023-05-21T21:35:16.191Z,8.85
2023-05-21T21:37:43.009Z,9.02
2023-05-21T21:40:09.834Z,9.60
2023-05-21T21:42:36.443Z,9.75
2023-05-21T21:45:03.859Z,9.73
2023-05-21T21:47:30.821Z,10.02
2023-05-21T21:49:57.385Z,10.48
2023-05-21T21:52:27.427Z,9.82
2023-05-21T21:54:55.512Z,9.27
2023-05-21T21:57:22.166Z,10.20
2023-05-21T21:59:48.714Z,9.48
2023-05-21T22:02:17.033Z,8.93
2023-05-21T22:04:45.031Z,10.18
2023-05-21T22:07:17.972Z,9.10
2023-05-21T22:09:45.679Z,8.85
2023-05-21T22:12:13.295Z,10.57
2023-05-21T22:14:39.878Z,9.77
2023-05-21T22:17:08.418Z,10.65
2023-05-21T22:19:35.899Z,9.80
2023-05-21T22:22:04.053Z,10.98
2023-05-21T22:24:31.968Z,12.18
2023-05-21T22:26:59.882Z,9.88
2023-05-21T22:29:26.502Z,10.57
2023-05-21T22:31:53.105Z,10.60
2023-05-21T22:34:19.942Z,11.23
2023-05-21T22:36:47.032Z,10.68
2023-05-21T22:39:13.635Z,13.05
2023-05-21T22:41:40.484Z,12.00
2023-05-21T22:44:07.036Z,12.68
2023-05-21T22:46:35.389Z,11.70
2023-05-21T22:49:02.620Z,13.07
2023-05-21T22:51:34.892Z,12.18
2023-05-21T22:54:01.853Z,11.55
2023-05-21T22:56:28.676Z,13.30
2023-05-21T22:58:55.738Z,12.98
2023-05-21T23:01:22.757Z,11.60
2023-05-21T23:03:50.990Z,11.98
2023-05-21T23:06:17.579Z,12.80
2023-05-21T23:08:44.110Z,12.02
2023-05-21T23:11:10.888Z,12.90
2023-05-21T23:13:37.506Z,12.43
2023-05-21T23:16:04.434Z,12.45
2023-05-21T23:18:31.160Z,13.85
2023-05-21T23:20:57.754Z,12.98
2023-05-21T23:23:24.374Z,14.07
2023-05-21T23:25:53.045Z,13.88
2023-05-21T23:28:19.819Z,13.40
2023-05-21T23:30:46.612Z,13.85
2023-05-21T23:33:13.679Z,13.52
2023-05-21T23:35:40.773Z,13.88
2023-05-21T23:38:07.388Z,14.00
2023-05-21T23:40:33.960Z,12.73
2023-05-21T23:43:00.994Z,12.70
2023-05-21T23:45:27.565Z,12.32
2023-05-21T23:47:54.240Z,13.02
2023-05-21T23:50:20.894Z,11.65
2023-05-21T23:52:47.534Z,12.40
2023-05-21T23:55:14.895Z,11.85
2023-05-21T23:57:41.635Z,11.40
